This is the latest recevied weather packets stored in our database for station/object DL7KST-13. If no packets are shown the sender has not sent any weather packets the latest 10 day(s).
| Time | Temp. | Humidity | Pressure | Rain* | Wind** | Luminosity | Snow |
|---|---|---|---|---|---|---|---|
| 1777866918 | 15° C | 63% | 1001.3 hPa | 0 mm | 0 m/s | - | - |
| 1777865713 | 15.56° C | 60% | 1001.9 hPa | 0 mm | 0.45 m/s, 54° | - | - |
| 1777864508 | 15.56° C | 58% | 1001.8 hPa | 0 mm | 0.45 m/s, 357° | - | - |
| 1777863305 | 15.56° C | 56% | 1001.9 hPa | 0 mm | 0.45 m/s, 352° | - | - |
| 1777862099 | 15° C | 57% | 1001.8 hPa | 0 mm | 0.45 m/s, 8° | - | - |
| 1777860894 | 15° C | 58% | 1001.8 hPa | 0 mm | 0 m/s | - | - |
| 1777859689 | 15.56° C | 55% | 1001.9 hPa | 0 mm | 0.45 m/s, 47° | - | - |
| 1777858483 | 15.56° C | 53% | 1001.3 hPa | 0 mm | 0.45 m/s, 116° | - | - |
| 1777857278 | 16.67° C | 51% | 1001.3 hPa | 0 mm | 0 m/s | - | - |
| 1777856074 | 17.78° C | 47% | 1000.9 hPa | 0 mm | 0 m/s | - | - |
| 1777854868 | 18.33° C | 44% | 1001.2 hPa | 0 mm | 0.89 m/s, 358° | - | - |
| 1777853664 | 18.33° C | 43% | 1001.1 hPa | 0 mm | 0.45 m/s, 355° | - | - |
| 1777852459 | 18.89° C | 42% | 1001.1 hPa | 0 mm | 0.89 m/s, 325° | - | - |
| 1777851253 | 18.89° C | 41% | 1001 hPa | 0 mm | 0.45 m/s, 278° | - | - |
| 1777850049 | 18.33° C | 45% | 1000.8 hPa | 0 mm | 1.34 m/s, 345° | - | - |
| 1777848875 | 16.67° C | 50% | 1001 hPa | 0 mm | 0.45 m/s, 30° | - | - |
| 1777848843 | 16.67° C | 50% | 1001 hPa | 0 mm | 0.45 m/s, 30° | - | - |
| 1777847638 | 15.56° C | 58% | 1001.2 hPa | 0 mm | 0 m/s | - | - |
| 1777846433 | 15° C | 67% | 1000.8 hPa | 0 mm | 0.45 m/s, 89° | - | - |
| 1777845228 | 14.44° C | 70% | 1000.8 hPa | 0 mm | 0 m/s | - | - |
| 1777844025 | 14.44° C | 69% | 1000.7 hPa | 0 mm | 0.45 m/s, 34° | - | - |
| 1777842818 | 15° C | 67% | 1000.7 hPa | 0 mm | 0 m/s | - | - |
| 1777841613 | 15.56° C | 66% | 1000.9 hPa | 0 mm | 0 m/s | - | - |
| 1777840409 | 16.11° C | 64% | 1000.9 hPa | 0 mm | 0 m/s | - | - |
| 1777839204 | 16.11° C | 62% | 1000.5 hPa | 0 mm | 0 m/s | - | - |
* Rain latest hour (hover to see other rain measurements)
** Current wind speed in m/s (hover to see current wind gust speed)